Time;durP1;ratioP1;P1;durP2;ratioP2;P2;SDS_P1;SDS_P2;PMS_P1;PMS_P2;Temp;Humidity;BMP_temperature;BMP_pressure;BME280_temperature;BME280_humidity;BME280_pressure;Samples;Min_cycle;Max_cycle;Signal;HPM_P1;HPM_P2
2023/12/11 00:02:03;;;;;;;0.50;0.50;;;7.70;99.90;;;;;;5037368;28;20433;-84
2023/12/11 00:04:30;;;;;;;0.40;0.30;;;7.70;99.90;;;;;;5037719;28;20479;-84
2023/12/11 00:06:58;;;;;;;0.30;0.30;;;7.60;99.90;;;;;;5036655;28;20482;-84
2023/12/11 00:09:25;;;;;;;0.30;0.30;;;7.60;99.90;;;;;;5037165;28;20439;-83
2023/12/11 00:11:51;;;;;;;4.73;0.30;;;7.60;99.90;;;;;;5036807;28;21043;-83
2023/12/11 00:14:18;;;;;;;0.30;0.20;;;7.70;99.90;;;;;;5037219;28;20458;-84
2023/12/11 00:16:46;;;;;;;0.40;0.30;;;7.70;99.90;;;;;;5036123;28;20455;-84
2023/12/11 00:19:13;;;;;;;0.40;0.30;;;7.80;99.90;;;;;;5037089;28;20446;-83
2023/12/11 00:21:41;;;;;;;0.50;0.50;;;7.70;99.90;;;;;;5036931;28;20435;-84
2023/12/11 00:24:09;;;;;;;0.40;0.40;;;7.80;99.90;;;;;;5037486;28;20478;-84
2023/12/11 00:26:36;;;;;;;0.40;0.40;;;7.80;99.90;;;;;;5037022;28;20466;-84
2023/12/11 00:29:02;;;;;;;0.30;0.30;;;7.80;99.90;;;;;;5037055;28;20447;-83
2023/12/11 00:31:29;;;;;;;0.30;0.20;;;7.80;99.90;;;;;;5037144;28;20451;-84
2023/12/11 00:33:56;;;;;;;0.30;0.30;;;7.80;99.90;;;;;;5036935;28;20935;-84
2023/12/11 00:36:23;;;;;;;0.30;0.30;;;7.80;99.90;;;;;;5036438;28;20481;-84
2023/12/11 00:38:49;;;;;;;0.30;0.30;;;7.90;99.90;;;;;;5036279;28;20446;-84
2023/12/11 00:41:18;;;;;;;0.30;0.30;;;7.90;99.90;;;;;;5036497;28;20457;-84
2023/12/11 00:43:44;;;;;;;0.50;0.30;;;7.80;99.90;;;;;;5035950;28;20450;-84
2023/12/11 00:46:12;;;;;;;0.40;0.30;;;7.80;99.90;;;;;;5036258;28;20475;-84
2023/12/11 00:48:39;;;;;;;0.30;0.30;;;7.80;99.90;;;;;;5036321;28;20447;-84
2023/12/11 00:51:06;;;;;;;0.30;0.30;;;7.80;99.90;;;;;;5035770;28;20479;-84
2023/12/11 00:53:32;;;;;;;3.07;0.40;;;7.80;99.90;;;;;;5036089;28;20435;-84
2023/12/11 00:55:59;;;;;;;0.93;0.40;;;7.80;99.90;;;;;;5035341;28;20449;-84
2023/12/11 00:58:27;;;;;;;0.30;0.30;;;7.80;99.90;;;;;;5036345;28;20810;-85
2023/12/11 01:00:54;;;;;;;0.40;0.30;;;7.80;99.90;;;;;;5035390;28;20443;-84
2023/12/11 01:03:21;;;;;;;0.30;0.30;;;7.80;99.90;;;;;;5035082;28;20446;-85
2023/12/11 01:05:47;;;;;;;0.30;0.30;;;7.90;99.90;;;;;;5035110;28;20482;-84
2023/12/11 01:08:14;;;;;;;0.40;0.30;;;7.80;99.90;;;;;;5034740;28;20442;-85
2023/12/11 01:10:41;;;;;;;0.30;0.30;;;7.80;99.90;;;;;;5034891;28;20446;-85
2023/12/11 01:13:07;;;;;;;0.30;0.30;;;7.80;99.90;;;;;;5034685;28;20947;-84
2023/12/11 01:15:36;;;;;;;0.67;0.30;;;7.80;99.90;;;;;;5034658;28;20450;-85
2023/12/11 01:18:02;;;;;;;0.30;0.30;;;7.80;99.90;;;;;;5034456;28;20462;-85
2023/12/11 01:20:29;;;;;;;0.30;0.30;;;7.70;99.90;;;;;;5034405;28;20435;-86
2023/12/11 01:22:56;;;;;;;0.30;0.30;;;7.70;99.90;;;;;;5034253;28;20442;-86
2023/12/11 01:25:23;;;;;;;0.60;0.40;;;7.80;99.90;;;;;;5034216;28;20486;-86
2023/12/11 01:27:49;;;;;;;0.30;0.30;;;7.80;99.90;;;;;;5034094;28;20459;-86
2023/12/11 01:30:16;;;;;;;0.80;0.30;;;7.80;99.90;;;;;;5033904;28;20939;-86
2023/12/11 01:32:44;;;;;;;0.30;0.30;;;7.90;99.90;;;;;;5034169;28;20450;-86
2023/12/11 01:35:11;;;;;;;0.40;0.30;;;7.90;99.90;;;;;;5034167;28;20443;-86
2023/12/11 01:37:38;;;;;;;0.40;0.30;;;7.80;99.90;;;;;;5033967;28;20466;-86
2023/12/11 01:40:07;;;;;;;0.30;0.30;;;7.90;99.90;;;;;;5033996;28;20443;-86
2023/12/11 01:42:34;;;;;;;0.30;0.20;;;7.90;99.90;;;;;;5034000;28;20489;-86
2023/12/11 01:45:00;;;;;;;0.30;0.30;;;7.90;99.90;;;;;;5033957;28;20837;-86
2023/12/11 01:47:27;;;;;;;0.30;0.20;;;7.80;99.90;;;;;;5035725;28;20550;-86
2023/12/11 01:49:55;;;;;;;0.30;0.30;;;7.80;99.90;;;;;;5037108;28;20427;-86
2023/12/11 01:52:23;;;;;;;0.30;0.27;;;7.80;99.90;;;;;;5055370;28;20427;-86
2023/12/11 01:54:50;;;;;;;0.30;0.20;;;7.80;99.90;;;;;;5036833;28;20476;-85
2023/12/11 01:57:17;;;;;;;0.30;0.20;;;7.70;99.90;;;;;;5036357;28;20472;-85
2023/12/11 01:59:44;;;;;;;0.30;0.20;;;7.70;99.90;;;;;;5034552;28;20450;-86
2023/12/11 02:02:11;;;;;;;0.83;0.40;;;7.70;99.90;;;;;;5033947;28;20439;-86
2023/12/11 02:04:38;;;;;;;0.30;0.30;;;7.60;99.90;;;;;;5033949;28;20835;-86
2023/12/11 02:07:06;;;;;;;0.30;0.30;;;7.70;99.90;;;;;;5033246;28;20987;-86
2023/12/11 02:09:33;;;;;;;0.30;0.20;;;7.80;99.90;;;;;;5033771;28;20461;-86
2023/12/11 02:12:00;;;;;;;0.30;0.20;;;7.80;99.90;;;;;;5033567;28;20446;-86
2023/12/11 02:14:26;;;;;;;0.40;0.30;;;7.80;99.90;;;;;;5033572;28;20450;-86
2023/12/11 02:16:53;;;;;;;0.60;0.30;;;7.80;99.90;;;;;;5033329;28;20458;-86
2023/12/11 02:19:20;;;;;;;0.30;0.23;;;7.80;99.90;;;;;;5033465;28;20458;-86
2023/12/11 02:21:47;;;;;;;0.30;0.30;;;7.80;99.90;;;;;;5033556;28;20457;-86
2023/12/11 02:24:19;;;;;;;0.40;0.30;;;7.80;99.90;;;;;;5033488;28;20465;-86
2023/12/11 02:26:48;;;;;;;0.30;0.30;;;7.90;99.90;;;;;;5033314;28;21014;-86
2023/12/11 02:29:15;;;;;;;0.30;0.30;;;7.90;99.90;;;;;;5033167;28;20442;-86
2023/12/11 02:31:41;;;;;;;0.30;0.20;;;7.90;99.90;;;;;;5033456;28;20446;-86
2023/12/11 02:34:08;;;;;;;0.30;0.27;;;7.90;99.90;;;;;;5033134;28;20958;-86
2023/12/11 02:36:35;;;;;;;0.30;0.20;;;7.90;99.90;;;;;;5033265;28;20458;-86
2023/12/11 02:39:02;;;;;;;0.30;0.30;;;7.90;99.90;;;;;;5034011;28;20442;-86
2023/12/11 02:41:29;;;;;;;0.30;0.30;;;7.90;99.90;;;;;;5037322;28;20446;-86
2023/12/11 02:43:58;;;;;;;1.23;0.30;;;7.90;99.90;;;;;;5037560;28;20438;-86
2023/12/11 02:46:24;;;;;;;0.30;0.30;;;7.90;99.90;;;;;;5036789;28;21028;-86
2023/12/11 02:48:51;;;;;;;0.30;0.20;;;7.90;99.90;;;;;;5037192;28;20449;-86
2023/12/11 02:51:18;;;;;;;0.30;0.30;;;7.90;99.90;;;;;;5037060;28;20454;-86
2023/12/11 02:53:45;;;;;;;0.60;0.37;;;7.90;99.90;;;;;;5037295;28;20461;-86
2023/12/11 02:56:12;;;;;;;0.30;0.30;;;7.90;99.90;;;;;;5037094;28;20463;-86
2023/12/11 02:58:39;;;;;;;0.30;0.30;;;7.90;99.90;;;;;;5036963;28;20442;-85
2023/12/11 03:01:07;;;;;;;0.40;0.30;;;8.00;99.90;;;;;;5036769;28;20430;-86
2023/12/11 03:03:33;;;;;;;0.30;0.20;;;8.00;99.90;;;;;;5036605;28;20435;-86
2023/12/11 03:06:03;;;;;;;0.30;0.30;;;8.00;99.90;;;;;;5036316;28;20489;-86
2023/12/11 03:08:29;;;;;;;0.30;0.20;;;8.00;99.90;;;;;;5037047;28;20445;-86
2023/12/11 03:10:56;;;;;;;0.30;0.20;;;8.00;99.90;;;;;;5036825;28;20443;-86
2023/12/11 03:13:23;;;;;;;0.30;0.20;;;8.10;99.90;;;;;;5036808;28;20469;-86
2023/12/11 03:15:50;;;;;;;0.30;0.20;;;8.10;99.90;;;;;;5036406;28;20450;-86
2023/12/11 03:18:18;;;;;;;0.30;0.30;;;8.10;99.90;;;;;;5036401;28;20434;-86
2023/12/11 03:20:44;;;;;;;1.90;0.30;;;8.10;99.90;;;;;;5036885;28;20446;-86
2023/12/11 03:23:11;;;;;;;0.30;0.30;;;8.10;99.90;;;;;;5036275;28;20927;-85
2023/12/11 03:25:38;;;;;;;0.30;0.20;;;8.00;99.90;;;;;;5036173;28;20516;-86
2023/12/11 03:28:05;;;;;;;0.40;0.30;;;8.00;99.90;;;;;;5036607;28;20472;-85
2023/12/11 03:30:31;;;;;;;0.30;0.30;;;8.00;99.90;;;;;;5036687;28;20445;-86
2023/12/11 03:32:58;;;;;;;0.73;0.30;;;8.00;99.90;;;;;;5036064;28;20957;-86
2023/12/11 03:35:26;;;;;;;0.30;0.20;;;8.00;99.90;;;;;;5036419;28;20438;-85
2023/12/11 03:37:53;;;;;;;0.40;0.37;;;8.00;99.90;;;;;;5036267;28;20485;-85
2023/12/11 03:40:20;;;;;;;0.50;0.30;;;8.10;99.90;;;;;;5036279;28;20446;-86
2023/12/11 03:42:46;;;;;;;0.40;0.30;;;8.00;99.90;;;;;;5036126;28;20952;-86
2023/12/11 03:45:13;;;;;;;0.30;0.30;;;7.90;99.90;;;;;;5036427;28;20485;-85
2023/12/11 03:47:40;;;;;;;0.30;0.30;;;8.00;99.90;;;;;;5036073;28;20473;-86
2023/12/11 03:50:07;;;;;;;0.37;0.37;;;8.00;99.90;;;;;;5035696;28;20818;-85
2023/12/11 03:52:36;;;;;;;0.30;0.20;;;8.00;99.90;;;;;;5035451;28;20446;-86
2023/12/11 03:55:03;;;;;;;0.30;0.30;;;7.90;99.90;;;;;;5036130;28;20458;-86
2023/12/11 03:57:29;;;;;;;0.40;0.30;;;8.00;99.90;;;;;;5035886;28;20474;-86
2023/12/11 03:59:56;;;;;;;3.37;0.30;;;7.90;99.90;;;;;;5039484;28;20443;-86
2023/12/11 04:02:23;;;;;;;0.90;0.50;;;7.90;99.90;;;;;;5054708;28;20457;-85
2023/12/11 04:04:50;;;;;;;0.30;0.30;;;7.90;99.90;;;;;;5035838;28;20994;-85
2023/12/11 04:07:17;;;;;;;0.30;0.30;;;7.90;99.90;;;;;;5035394;28;20493;-85
2023/12/11 04:09:45;;;;;;;0.40;0.30;;;7.80;99.90;;;;;;5035845;28;20439;-86
2023/12/11 04:12:12;;;;;;;0.30;0.30;;;7.80;99.90;;;;;;5036742;28;20829;-85
2023/12/11 04:14:38;;;;;;;0.30;0.20;;;7.80;99.90;;;;;;5035657;28;20462;-86
2023/12/11 04:17:05;;;;;;;0.30;0.20;;;7.70;99.90;;;;;;5035457;28;20486;-86
2023/12/11 04:19:32;;;;;;;1.33;0.30;;;7.70;99.90;;;;;;5035206;28;20450;-86
2023/12/11 04:21:58;;;;;;;0.30;0.30;;;7.70;99.90;;;;;;5035872;28;20449;-86
2023/12/11 04:24:25;;;;;;;0.40;0.30;;;7.70;99.90;;;;;;5035170;28;20434;-86
2023/12/11 04:26:53;;;;;;;0.30;0.30;;;7.70;99.90;;;;;;5035325;28;20490;-86
2023/12/11 04:29:20;;;;;;;0.30;0.20;;;7.70;99.90;;;;;;5035325;28;20453;-86
2023/12/11 04:31:47;;;;;;;0.30;0.30;;;7.70;99.90;;;;;;5035386;28;20459;-85
2023/12/11 04:34:13;;;;;;;0.30;0.27;;;7.70;99.90;;;;;;5035325;28;20458;-85
2023/12/11 04:36:42;;;;;;;0.53;0.40;;;7.70;99.90;;;;;;5034827;28;20998;-86
2023/12/11 04:39:09;;;;;;;0.30;0.30;;;7.60;99.90;;;;;;5035174;28;20438;-86
2023/12/11 04:41:35;;;;;;;0.30;0.20;;;7.60;99.90;;;;;;5035051;28;20462;-85
2023/12/11 04:44:04;;;;;;;0.30;0.30;;;7.60;99.90;;;;;;5035122;28;20453;-86
2023/12/11 04:46:30;;;;;;;0.60;0.60;;;7.50;99.90;;;;;;5034967;28;21121;-86
2023/12/11 04:48:57;;;;;;;0.30;0.27;;;7.50;99.90;;;;;;5034679;28;20454;-86
2023/12/11 04:51:24;;;;;;;0.40;0.40;;;7.50;99.90;;;;;;5034672;28;20541;-85
2023/12/11 04:53:51;;;;;;;0.30;0.30;;;7.40;99.90;;;;;;5035163;28;20451;-85
2023/12/11 04:56:17;;;;;;;0.40;0.30;;;7.40;99.90;;;;;;5034776;28;20994;-86
2023/12/11 04:58:44;;;;;;;0.30;0.20;;;7.40;99.90;;;;;;5034829;28;20442;-86
2023/12/11 05:01:12;;;;;;;0.30;0.20;;;7.40;99.90;;;;;;5034451;28;20940;-86
2023/12/11 05:03:39;;;;;;;0.30;0.30;;;7.40;99.90;;;;;;5034427;28;20447;-86
2023/12/11 05:06:07;;;;;;;0.30;0.20;;;7.40;99.90;;;;;;5034515;28;20489;-86
2023/12/11 05:08:33;;;;;;;0.30;0.20;;;7.30;99.90;;;;;;5034698;28;20431;-86
2023/12/11 05:11:00;;;;;;;0.30;0.30;;;7.30;99.90;;;;;;5034819;28;20818;-86
2023/12/11 05:13:27;;;;;;;0.30;0.20;;;7.30;99.90;;;;;;5034754;28;20450;-85
2023/12/11 05:15:54;;;;;;;0.30;0.30;;;7.40;99.90;;;;;;5034556;28;20442;-86
2023/12/11 05:18:23;;;;;;;0.50;0.30;;;7.40;99.90;;;;;;5034368;28;20450;-86
2023/12/11 05:20:49;;;;;;;0.30;0.20;;;7.40;99.90;;;;;;5034459;28;20443;-86
2023/12/11 05:23:16;;;;;;;0.30;0.30;;;7.40;99.90;;;;;;5034224;28;20455;-86
2023/12/11 05:25:43;;;;;;;0.30;0.20;;;7.40;99.90;;;;;;5034128;28;20482;-85
2023/12/11 05:28:09;;;;;;;0.30;0.20;;;7.30;99.90;;;;;;5034483;28;20449;-86
2023/12/11 05:30:36;;;;;;;0.30;0.30;;;7.30;99.90;;;;;;5034234;28;20447;-86
2023/12/11 05:33:03;;;;;;;0.30;0.30;;;7.40;99.90;;;;;;5034275;28;20955;-86
2023/12/11 05:35:31;;;;;;;0.40;0.40;;;7.40;99.90;;;;;;5034292;28;20514;-86
2023/12/11 05:37:58;;;;;;;0.30;0.20;;;7.40;99.90;;;;;;5034304;28;20455;-86
2023/12/11 05:40:25;;;;;;;0.30;0.30;;;7.40;99.90;;;;;;5034047;28;20447;-86
2023/12/11 05:42:52;;;;;;;0.30;0.30;;;7.30;99.90;;;;;;5034206;28;20625;-87
2023/12/11 05:45:19;;;;;;;0.30;0.30;;;7.40;99.90;;;;;;5034163;28;20451;-86
2023/12/11 05:47:46;;;;;;;0.30;0.30;;;7.30;99.90;;;;;;5033884;28;20562;-86
2023/12/11 05:50:13;;;;;;;0.30;0.30;;;7.40;99.90;;;;;;5033986;28;20454;-85
2023/12/11 05:52:41;;;;;;;0.40;0.30;;;7.30;99.90;;;;;;5033967;28;20454;-85
2023/12/11 05:55:08;;;;;;;0.40;0.40;;;7.40;99.90;;;;;;5034006;28;20442;-86
2023/12/11 05:57:35;;;;;;;0.30;0.20;;;7.40;99.90;;;;;;5033883;28;20466;-86
2023/12/11 06:00:02;;;;;;;0.30;0.30;;;7.40;99.90;;;;;;5034153;28;20453;-84
2023/12/11 06:02:29;;;;;;;1.60;0.30;;;7.40;99.90;;;;;;5034074;28;20524;-84
2023/12/11 06:04:56;;;;;;;0.30;0.20;;;7.40;99.90;;;;;;5034094;28;20441;-84
2023/12/11 06:07:23;;;;;;;0.50;0.30;;;7.30;99.90;;;;;;5033626;28;20497;-84
2023/12/11 06:09:51;;;;;;;0.30;0.20;;;7.40;99.90;;;;;;5043827;28;20455;-82
2023/12/11 06:12:18;;;;;;;0.30;0.30;;;7.40;99.90;;;;;;5048880;28;20427;-84
2023/12/11 06:14:45;;;;;;;0.40;0.30;;;7.40;99.90;;;;;;5034989;28;20446;-84
2023/12/11 06:17:11;;;;;;;0.30;0.30;;;7.40;99.90;;;;;;5035289;28;20465;-84
2023/12/11 06:19:42;;;;;;;0.43;0.30;;;7.50;99.90;;;;;;5034568;28;20439;-84
2023/12/11 06:22:09;;;;;;;0.30;0.30;;;7.50;99.90;;;;;;5034703;28;20427;-84
2023/12/11 06:24:38;;;;;;;0.30;0.30;;;7.50;99.90;;;;;;5033329;28;20439;-85
2023/12/11 06:27:06;;;;;;;0.50;0.30;;;7.40;99.90;;;;;;5033446;28;20485;-84
2023/12/11 06:29:33;;;;;;;0.30;0.30;;;7.40;99.90;;;;;;5033416;28;20453;-85
2023/12/11 06:31:59;;;;;;;0.30;0.30;;;7.40;99.90;;;;;;5033713;28;20439;-85
2023/12/11 06:34:26;;;;;;;0.30;0.30;;;7.40;99.90;;;;;;5033247;28;20975;-85
2023/12/11 06:36:53;;;;;;;7.30;0.40;;;7.40;99.90;;;;;;5033877;28;20459;-85
2023/12/11 06:39:20;;;;;;;2.10;0.40;;;7.40;99.90;;;;;;5033683;28;20453;-84
2023/12/11 06:41:47;;;;;;;0.40;0.40;;;7.50;99.90;;;;;;5033812;28;20866;-85
2023/12/11 06:44:15;;;;;;;0.40;0.30;;;7.50;99.90;;;;;;5033545;28;20449;-85
2023/12/11 06:46:41;;;;;;;0.30;0.30;;;7.50;99.90;;;;;;5033108;28;20493;-85
2023/12/11 06:49:08;;;;;;;0.30;0.30;;;7.50;99.90;;;;;;5033384;28;20447;-84
2023/12/11 06:51:37;;;;;;;0.43;0.30;;;7.60;99.90;;;;;;5033756;28;20442;-85
2023/12/11 06:54:04;;;;;;;0.30;0.30;;;7.60;99.90;;;;;;5033305;28;20509;-85
2023/12/11 06:56:31;;;;;;;0.30;0.30;;;7.60;99.90;;;;;;5032939;28;21002;-85
2023/12/11 06:58:59;;;;;;;0.33;0.30;;;7.60;99.90;;;;;;5033312;28;20457;-85
2023/12/11 07:01:29;;;;;;;0.40;0.37;;;7.60;99.90;;;;;;5033585;28;20454;-84
2023/12/11 07:03:56;;;;;;;0.30;0.30;;;7.60;99.90;;;;;;5033776;28;20449;-84
2023/12/11 07:06:23;;;;;;;1.23;0.40;;;7.60;99.90;;;;;;5033390;28;20493;-84
2023/12/11 07:08:50;;;;;;;0.30;0.30;;;7.60;99.90;;;;;;5033597;28;20482;-85
2023/12/11 07:11:17;;;;;;;0.30;0.20;;;7.50;99.90;;;;;;5033322;28;20443;-85
2023/12/11 07:13:44;;;;;;;0.30;0.30;;;7.60;99.90;;;;;;5033476;28;20453;-85
2023/12/11 07:16:11;;;;;;;0.37;0.27;;;7.60;99.90;;;;;;5033933;28;20474;-85
2023/12/11 07:18:39;;;;;;;0.77;0.60;;;7.60;99.90;;;;;;5033408;28;20441;-85
2023/12/11 07:21:09;;;;;;;0.30;0.30;;;7.60;99.90;;;;;;5033454;28;20427;-85
2023/12/11 07:23:35;;;;;;;0.40;0.30;;;7.60;99.90;;;;;;5033820;28;20493;-85
2023/12/11 07:26:04;;;;;;;0.30;0.30;;;7.60;99.90;;;;;;5035295;28;20486;-85
2023/12/11 07:28:30;;;;;;;0.30;0.30;;;7.60;99.90;;;;;;5036668;28;20537;-85
2023/12/11 07:30:58;;;;;;;0.87;0.30;;;7.60;99.90;;;;;;5036478;28;20450;-85
2023/12/11 07:33:25;;;;;;;0.30;0.30;;;7.70;99.90;;;;;;5036708;28;20545;-85
2023/12/11 07:35:53;;;;;;;0.40;0.30;;;7.70;99.90;;;;;;5036580;28;20470;-85
2023/12/11 07:38:20;;;;;;;0.30;0.30;;;7.70;99.90;;;;;;5036950;28;20955;-85
2023/12/11 07:40:47;;;;;;;0.40;0.30;;;7.70;99.90;;;;;;5036693;28;20453;-85
2023/12/11 07:43:14;;;;;;;0.30;0.30;;;7.70;99.90;;;;;;5036961;28;20446;-85
2023/12/11 07:45:40;;;;;;;0.40;0.37;;;7.80;99.90;;;;;;5036572;28;20447;-85
2023/12/11 07:48:07;;;;;;;0.30;0.20;;;7.80;99.90;;;;;;5036919;28;20482;-84
2023/12/11 07:50:34;;;;;;;0.30;0.30;;;7.80;99.90;;;;;;5037051;28;20438;-85
2023/12/11 07:53:02;;;;;;;0.50;0.40;;;7.80;99.90;;;;;;5036724;28;20441;-85
2023/12/11 07:55:29;;;;;;;0.30;0.30;;;7.90;99.90;;;;;;5036332;28;20450;-85
2023/12/11 07:57:56;;;;;;;0.40;0.37;;;7.90;99.90;;;;;;5036859;28;20835;-85
2023/12/11 08:00:23;;;;;;;0.30;0.30;;;7.90;99.90;;;;;;5036340;28;20450;-85
2023/12/11 08:02:49;;;;;;;0.40;0.30;;;7.90;99.90;;;;;;5036555;28;20457;-85
2023/12/11 08:05:16;;;;;;;0.33;0.33;;;7.90;99.90;;;;;;5036310;28;20446;-85
2023/12/11 08:07:43;;;;;;;8.13;0.60;;;7.90;99.90;;;;;;5035938;28;20498;-84
2023/12/11 08:10:11;;;;;;;2.87;0.50;;;7.80;99.90;;;;;;5036171;28;20943;-85
2023/12/11 08:12:38;;;;;;;0.40;0.30;;;7.80;99.90;;;;;;5036647;28;20443;-84
2023/12/11 08:15:06;;;;;;;0.60;0.37;;;7.80;99.90;;;;;;5036945;28;20433;-84
2023/12/11 08:17:32;;;;;;;0.40;0.33;;;7.80;99.90;;;;;;5041627;28;21005;-85
2023/12/11 08:19:59;;;;;;;0.33;0.33;;;7.70;99.90;;;;;;5055259;28;20446;-83
2023/12/11 08:22:26;;;;;;;0.30;0.30;;;7.80;99.90;;;;;;5035722;28;20457;-84
2023/12/11 08:24:53;;;;;;;2.63;0.57;;;7.80;99.90;;;;;;5035749;28;20450;-84
2023/12/11 08:27:21;;;;;;;0.80;0.40;;;7.90;99.90;;;;;;5035806;28;20912;-84
2023/12/11 08:29:48;;;;;;;0.50;0.50;;;7.90;99.90;;;;;;5036237;28;20457;-85
2023/12/11 08:32:14;;;;;;;0.30;0.30;;;7.90;99.90;;;;;;5037040;28;20439;-84
2023/12/11 08:34:41;;;;;;;0.40;0.30;;;8.00;99.90;;;;;;5036833;28;20818;-84
2023/12/11 08:37:08;;;;;;;0.47;0.47;;;8.10;99.90;;;;;;5035019;28;20465;-85
2023/12/11 08:39:35;;;;;;;0.30;0.30;;;8.10;99.90;;;;;;5035716;28;20422;-84
2023/12/11 08:42:03;;;;;;;2.97;0.50;;;8.20;99.90;;;;;;5035451;28;20493;-85
2023/12/11 08:44:31;;;;;;;0.40;0.40;;;8.30;99.90;;;;;;5035281;28;20435;-84
2023/12/11 08:46:58;;;;;;;0.40;0.40;;;8.40;99.90;;;;;;5034884;28;20486;-84
2023/12/11 08:49:25;;;;;;;2.27;0.50;;;8.40;99.90;;;;;;5034764;28;20530;-84
2023/12/11 08:51:51;;;;;;;1.17;0.40;;;8.50;99.90;;;;;;5034908;28;20893;-84
2023/12/11 08:54:18;;;;;;;0.40;0.40;;;8.50;99.90;;;;;;5035140;28;20461;-84
2023/12/11 08:56:45;;;;;;;0.97;0.50;;;8.50;99.90;;;;;;5035582;28;20458;-84
2023/12/11 08:59:12;;;;;;;0.30;0.30;;;8.60;99.90;;;;;;5035038;28;20835;-84
2023/12/11 09:01:40;;;;;;;1.90;0.70;;;8.70;99.90;;;;;;5034989;28;20445;-84
2023/12/11 09:04:06;;;;;;;0.30;0.30;;;8.80;99.90;;;;;;5036428;28;20453;-84
2023/12/11 09:06:33;;;;;;;0.40;0.33;;;8.90;99.90;;;;;;5035395;28;20479;-84
2023/12/11 09:09:00;;;;;;;0.70;0.60;;;9.00;99.90;;;;;;5036228;28;20821;-84
2023/12/11 09:11:27;;;;;;;0.30;0.30;;;9.10;99.90;;;;;;5034653;28;20450;-84
2023/12/11 09:13:53;;;;;;;0.67;0.40;;;9.20;99.90;;;;;;5035185;28;20458;-84
2023/12/11 09:16:20;;;;;;;0.33;0.30;;;9.20;99.90;;;;;;5035237;28;20459;-84
2023/12/11 09:18:48;;;;;;;0.40;0.30;;;9.20;99.90;;;;;;5035133;28;20445;-84
2023/12/11 09:21:15;;;;;;;0.93;0.40;;;9.10;99.90;;;;;;5034848;28;20446;-84
2023/12/11 09:23:41;;;;;;;1.33;0.30;;;9.10;99.90;;;;;;5034758;28;20970;-84
2023/12/11 09:26:08;;;;;;;0.40;0.40;;;9.00;99.90;;;;;;5035086;28;20477;-84
2023/12/11 09:28:35;;;;;;;0.83;0.30;;;9.00;99.90;;;;;;5035167;28;20486;-84
2023/12/11 09:31:03;;;;;;;0.73;0.60;;;9.00;99.90;;;;;;5035407;28;20450;-84
2023/12/11 09:33:30;;;;;;;0.67;0.40;;;9.00;99.90;;;;;;5040425;28;20478;-84
2023/12/11 09:35:59;;;;;;;0.57;0.40;;;9.00;99.90;;;;;;5036661;28;20504;-84
2023/12/11 09:38:26;;;;;;;0.63;0.40;;;9.00;99.90;;;;;;5037616;28;20537;-84
2023/12/11 09:40:52;;;;;;;0.50;0.40;;;9.10;99.90;;;;;;5037899;28;20453;-84
2023/12/11 09:43:19;;;;;;;1.30;0.40;;;9.20;99.90;;;;;;5037665;28;20461;-83
2023/12/11 09:45:49;;;;;;;0.40;0.40;;;9.30;99.90;;;;;;5036676;28;20512;-84
2023/12/11 09:48:16;;;;;;;0.60;0.30;;;9.30;99.90;;;;;;5035318;28;20483;-84
2023/12/11 09:50:44;;;;;;;0.30;0.30;;;9.40;99.90;;;;;;5035217;28;20473;-84
2023/12/11 09:53:13;;;;;;;0.43;0.40;;;9.50;99.90;;;;;;5036086;28;20489;-83
2023/12/11 09:55:40;;;;;;;0.40;0.30;;;9.50;99.90;;;;;;5034973;28;20454;-84
2023/12/11 09:58:08;;;;;;;0.30;0.30;;;9.60;99.90;;;;;;5034773;28;20473;-84
2023/12/11 10:00:35;;;;;;;0.50;0.40;;;9.70;99.90;;;;;;5034191;28;20449;-84
2023/12/11 10:03:07;;;;;;;0.60;0.40;;;9.60;99.90;;;;;;5034282;28;20447;-85
2023/12/11 10:05:35;;;;;;;0.40;0.40;;;9.50;99.90;;;;;;5034320;28;20920;-85
2023/12/11 10:08:02;;;;;;;0.40;0.40;;;9.50;99.90;;;;;;5033664;28;21006;-84
2023/12/11 10:10:32;;;;;;;0.30;0.30;;;9.50;99.90;;;;;;5034398;28;20443;-84
2023/12/11 10:12:59;;;;;;;0.33;0.30;;;9.70;99.90;;;;;;5034230;28;20486;-84
2023/12/11 10:15:28;;;;;;;0.50;0.40;;;9.70;99.90;;;;;;5034344;28;20439;-84
2023/12/11 10:18:09;;;;;;;0.53;0.40;;;9.70;99.90;;;;;;5033721;28;20462;-85
2023/12/11 10:20:37;;;;;;;1.70;0.70;;;9.80;99.90;;;;;;5033475;28;20435;-84
2023/12/11 10:23:16;;;;;;;0.30;0.30;;;9.90;99.90;;;;;;5033798;28;20434;-85
2023/12/11 10:25:46;;;;;;;1.13;0.40;;;10.00;99.90;;;;;;5035005;28;20850;-84
2023/12/11 10:28:14;;;;;;;0.30;0.30;;;10.30;99.90;;;;;;5034306;28;20478;-86
2023/12/11 10:30:55;;;;;;;0.40;0.33;;;10.70;99.90;;;;;;5051656;28;20499;-80
2023/12/11 10:33:23;;;;;;;0.40;0.33;;;11.00;99.90;;;;;;5033695;28;20936;-81
2023/12/11 10:35:50;;;;;;;0.43;0.43;;;11.10;99.90;;;;;;5033779;28;20434;-80
2023/12/11 10:38:24;;;;;;;0.40;0.30;;;11.40;99.90;;;;;;5033560;28;20954;-81
2023/12/11 10:40:53;;;;;;;0.30;0.30;;;11.60;99.90;;;;;;5033898;28;20449;-83
2023/12/11 10:43:20;;;;;;;0.30;0.30;;;11.70;99.90;;;;;;5034152;28;20454;-83
2023/12/11 10:45:47;;;;;;;0.50;0.47;;;11.60;99.90;;;;;;5033288;28;20450;-83
2023/12/11 10:48:13;;;;;;;1.23;0.60;;;11.50;99.90;;;;;;5033516;28;20490;-83
2023/12/11 10:50:42;;;;;;;1.00;0.73;;;11.40;99.90;;;;;;5033917;28;20446;-83
2023/12/11 10:53:09;;;;;;;0.30;0.30;;;11.20;99.90;;;;;;5034800;28;20446;-82
2023/12/11 10:55:37;;;;;;;0.40;0.37;;;11.00;99.90;;;;;;5034526;28;20815;-83
2023/12/11 10:58:07;;;;;;;0.40;0.40;;;10.90;99.90;;;;;;5033223;28;20459;-84
2023/12/11 11:00:35;;;;;;;0.60;0.60;;;11.00;99.90;;;;;;5034854;28;20488;-83
2023/12/11 11:03:06;;;;;;;0.70;0.30;;;11.00;99.90;;;;;;5037412;28;20553;-83
2023/12/11 11:05:33;;;;;;;0.40;0.40;;;11.00;99.90;;;;;;5037783;28;20431;-83
2023/12/11 11:08:11;;;;;;;3.53;0.83;;;11.00;99.90;;;;;;5036894;28;20490;-83
2023/12/11 11:10:45;;;;;;;0.50;0.40;;;11.10;99.90;;;;;;5037968;28;20435;-84
2023/12/11 11:13:20;;;;;;;0.77;0.40;;;11.10;99.90;;;;;;5037669;28;20496;-83
2023/12/11 11:15:51;;;;;;;0.30;0.30;;;11.10;99.90;;;;;;5036782;28;20963;-84
2023/12/11 11:18:18;;;;;;;0.30;0.30;;;11.10;99.90;;;;;;5037076;28;20477;-82
2023/12/11 11:21:08;;;;;;;0.50;0.40;;;11.20;99.90;;;;;;5037943;28;20439;-83
2023/12/11 11:23:42;;;;;;;0.30;0.30;;;11.20;99.90;;;;;;5037211;28;20434;-83
2023/12/11 11:26:31;;;;;;;1.13;0.30;;;11.20;99.90;;;;;;5044904;28;20469;-83
2023/12/11 11:28:59;;;;;;;0.40;0.40;;;11.10;99.90;;;;;;5039579;28;20471;-83
2023/12/11 11:31:50;;;;;;;1.53;0.40;;;11.10;99.90;;;;;;5038760;28;20970;-83
2023/12/11 11:34:43;;;;;;;0.73;0.40;;;11.20;99.90;;;;;;5039523;28;20438;-83
2023/12/11 11:37:10;;;;;;;0.70;0.47;;;11.30;99.90;;;;;;5039045;28;20819;-83
2023/12/11 11:39:58;;;;;;;0.30;0.30;;;11.40;99.90;;;;;;5038940;28;20501;-83
2023/12/11 11:42:25;;;;;;;0.33;0.30;;;11.50;99.90;;;;;;5041828;28;20443;-82
2023/12/11 11:44:57;;;;;;;1.70;0.40;;;11.50;99.90;;;;;;5038439;28;20899;-83
2023/12/11 11:47:24;;;;;;;0.50;0.40;;;11.60;99.90;;;;;;5038171;28;20469;-84
2023/12/11 11:49:50;;;;;;;0.50;0.40;;;11.50;99.90;;;;;;5037839;28;20427;-85
2023/12/11 11:52:23;;;;;;;0.30;0.20;;;11.50;99.90;;;;;;5036634;28;20459;-84
2023/12/11 11:54:55;;;;;;;1.17;0.40;;;11.50;99.90;;;;;;5036554;28;20419;-84
2023/12/11 11:57:27;;;;;;;0.80;0.53;;;11.40;99.90;;;;;;5036359;28;20467;-84
2023/12/11 11:59:55;;;;;;;2.53;0.30;;;11.30;99.90;;;;;;5035818;28;20900;-84
2023/12/11 12:02:23;;;;;;;0.33;0.33;;;11.20;99.90;;;;;;5036398;28;20457;-84
2023/12/11 12:04:50;;;;;;;0.30;0.30;;;11.10;99.90;;;;;;5036159;28;20438;-84
2023/12/11 12:07:17;;;;;;;0.40;0.30;;;11.10;99.90;;;;;;5035492;28;20471;-84
2023/12/11 12:09:50;;;;;;;0.50;0.40;;;11.10;99.90;;;;;;5036029;28;20500;-84
2023/12/11 12:12:17;;;;;;;0.30;0.30;;;11.00;99.90;;;;;;5034769;28;20434;-84
2023/12/11 12:14:44;;;;;;;0.97;0.43;;;10.90;99.90;;;;;;5035863;28;20435;-84
2023/12/11 12:17:12;;;;;;;3.27;0.40;;;10.90;99.90;;;;;;5035342;28;20983;-84
2023/12/11 12:19:39;;;;;;;0.90;0.50;;;10.80;99.90;;;;;;5035618;28;20439;-84
2023/12/11 12:22:06;;;;;;;0.40;0.30;;;10.70;99.90;;;;;;5035838;28;20453;-86
2023/12/11 12:24:38;;;;;;;3.80;0.47;;;10.60;99.90;;;;;;5035942;28;20828;-84
2023/12/11 12:27:11;;;;;;;2.50;0.40;;;10.50;99.90;;;;;;5036406;28;21041;-83
2023/12/11 12:29:39;;;;;;;0.53;0.30;;;10.60;99.90;;;;;;5037010;28;20482;-83
2023/12/11 12:32:08;;;;;;;0.37;0.33;;;10.50;99.90;;;;;;5036297;28;20446;-84
2023/12/11 12:34:37;;;;;;;0.50;0.40;;;10.60;99.90;;;;;;5036199;28;20465;-83
2023/12/11 12:37:06;;;;;;;0.70;0.37;;;10.80;99.90;;;;;;5035820;28;20451;-84
2023/12/11 12:39:33;;;;;;;0.90;0.40;;;10.80;99.90;;;;;;5036158;28;20454;-83
2023/12/11 12:42:00;;;;;;;0.40;0.40;;;10.80;99.90;;;;;;5049817;28;20438;-80
2023/12/11 12:44:27;;;;;;;0.77;0.40;;;10.80;99.90;;;;;;5043294;28;20439;-81
2023/12/11 12:46:54;;;;;;;0.40;0.30;;;10.90;99.90;;;;;;5035110;28;20466;-83
2023/12/11 12:49:21;;;;;;;0.40;0.40;;;11.10;99.90;;;;;;5035437;28;20490;-83
2023/12/11 12:51:53;;;;;;;0.50;0.50;;;11.20;99.90;;;;;;5035217;28;20482;-83
2023/12/11 12:54:21;;;;;;;0.60;0.40;;;11.30;99.90;;;;;;5035153;28;20432;-83
2023/12/11 12:56:55;;;;;;;1.83;0.40;;;11.30;99.90;;;;;;5034990;28;20466;-83
2023/12/11 12:59:22;;;;;;;0.30;0.30;;;11.20;99.90;;;;;;5035214;28;20451;-83